»·PEaware :: N8SR KVGT-KHII

N8SR :: KVGT-KHII

FLIGHT INFORMATION

Flight Status: Arrived
Operator: Privately registered:
United States
More flights under this callsign
Pilot: Jim C. (23814)
Aircraft: Unknown
(P28U)
More flights by this aircraft type
Origin: KVGT North Las Vegas
United States
Destination: KHII Lake Havasu City
United States
More flights between these airports :: More routes between these airports
Route: +KVGT NOTWN5 LAS BLD V237 UNPAS KHII
File this flight plan on PilotEdge
Remarks:
Altitude:
(Current/Filed)
9,000ft
Speed:
(Current/Filed)
150kts
Departed: 22-Feb-20 11:38 AM
Arrived: 22-Feb-20 12:39 PM
Distance/Time
Traveled:
106nm/1:01
Distance/Time
To Go:
Arrived

Flight Plot

Page will automatically refresh every two minutes.


Map Options




Map Legend


Flown Route
Filed Route
Departure Airport
Arrival Airport
Navaid (VOR, NDB)
Fix

Horizontal Profiles

Position Reports

Time Latitude Longitude Heading Altitude Ground
Speed
22-Feb-20 11:12 36.208243 -115.197778 177 2208ft 0kts
22-Feb-20 11:13 36.208243 -115.197778 177 2208ft 0kts
22-Feb-20 11:14 36.208243 -115.197778 177 2208ft 0kts
22-Feb-20 11:15 36.208243 -115.197778 177 2208ft 0kts
22-Feb-20 11:16 36.208243 -115.197778 177 2208ft 0kts
22-Feb-20 11:17 36.208243 -115.197778 177 2208ft 0kts
22-Feb-20 11:18 36.208243 -115.197778 177 2208ft 0kts
22-Feb-20 11:19 36.208243 -115.197778 177 2208ft 0kts
22-Feb-20 11:20 36.208243 -115.197778 177 2208ft 0kts
22-Feb-20 11:21 36.208243 -115.197778 177 2208ft 0kts
22-Feb-20 11:22 36.208243 -115.197778 177 2208ft 0kts
22-Feb-20 11:23 36.208420 -115.196778 317 2208ft 7kts
22-Feb-20 11:24 36.208508 -115.197281 83 2208ft 0kts
22-Feb-20 11:25 36.208508 -115.197280 86 2208ft 0kts
22-Feb-20 11:26 36.208508 -115.197279 86 2208ft 0kts
22-Feb-20 11:27 36.208508 -115.197279 86 2208ft 0kts
22-Feb-20 11:28 36.208508 -115.197279 86 2208ft 0kts
22-Feb-20 11:29 36.208508 -115.197279 86 2208ft 0kts
22-Feb-20 11:30 36.207919 -115.195470 14 2208ft 9kts
22-Feb-20 11:31 36.210305 -115.198315 314 2208ft 15kts
22-Feb-20 11:32 36.212663 -115.201918 268 2208ft 10kts
22-Feb-20 11:33 36.213985 -115.203324 16 2208ft 8kts
22-Feb-20 11:34 36.214153 -115.203219 39 2208ft 0kts
22-Feb-20 11:35 36.214156 -115.203217 38 2208ft 0kts
22-Feb-20 11:36 36.214173 -115.203200 38 2208ft 1kts
22-Feb-20 11:37 36.207681 -115.193476 127 2467ft 81kts
22-Feb-20 11:38 36.195494 -115.201782 265 3604ft 99kts
22-Feb-20 11:39 36.193937 -115.237671 264 4661ft 115kts
22-Feb-20 11:40 36.218365 -115.265918 324 5060ft 142kts
22-Feb-20 11:41 36.253734 -115.281504 40 4983ft 148kts
22-Feb-20 11:42 36.236543 -115.248465 159 5040ft 145kts
22-Feb-20 11:43 36.199521 -115.228304 155 5054ft 145kts
22-Feb-20 11:44 36.162907 -115.207174 155 5107ft 145kts
22-Feb-20 11:45 36.126240 -115.185913 155 5107ft 145kts
22-Feb-20 11:46 36.089547 -115.164713 154 5105ft 145kts
22-Feb-20 11:47 36.070504 -115.124290 109 5585ft 130kts
22-Feb-20 11:48 36.058620 -115.082593 109 6284ft 127kts
22-Feb-20 11:49 36.047003 -115.041443 109 6983ft 127kts
22-Feb-20 11:50 36.035379 -115.000408 109 7682ft 126kts
22-Feb-20 11:51 36.023746 -114.959373 109 8383ft 126kts
22-Feb-20 11:52 36.012050 -114.918129 109 8942ft 135kts
22-Feb-20 11:53 35.998016 -114.871813 127 8937ft 148kts
22-Feb-20 11:54 35.960639 -114.851549 164 8945ft 149kts
22-Feb-20 11:55 35.920644 -114.838558 165 8945ft 149kts
22-Feb-20 11:56 35.887124 -114.827778 165 8945ft 149kts
22-Feb-20 11:57 35.847155 -114.814903 165 8944ft 146kts
22-Feb-20 11:58 35.807985 -114.801740 164 8945ft 146kts
22-Feb-20 11:59 35.768800 -114.788828 165 8945ft 145kts
22-Feb-20 12:00 35.729707 -114.776212 165 8945ft 145kts
22-Feb-20 12:01 35.690492 -114.763630 165 8945ft 145kts
22-Feb-20 12:02 35.651289 -114.751075 165 8945ft 145kts
22-Feb-20 12:03 35.612132 -114.738550 165 8945ft 145kts
22-Feb-20 12:04 35.572930 -114.726021 165 8945ft 145kts
22-Feb-20 12:05 35.533724 -114.713509 165 8945ft 145kts
22-Feb-20 12:06 35.494583 -114.701026 165 8945ft 145kts
22-Feb-20 12:07 35.455329 -114.688520 165 8945ft 145kts
22-Feb-20 12:08 35.416205 -114.676067 165 8945ft 145kts
22-Feb-20 12:09 35.377056 -114.663620 165 8945ft 145kts
22-Feb-20 12:10 35.342565 -114.652664 165 8945ft 145kts
22-Feb-20 12:11 35.303324 -114.640211 165 8945ft 145kts
22-Feb-20 12:12 35.264719 -114.625550 163 8945ft 145kts
22-Feb-20 12:13 35.225545 -114.612587 165 8945ft 145kts
22-Feb-20 12:14 35.186426 -114.600333 165 8945ft 145kts
22-Feb-20 12:15 35.147084 -114.588145 165 8945ft 145kts
22-Feb-20 12:16 35.107910 -114.576042 165 8945ft 145kts
22-Feb-20 12:17 35.068515 -114.563891 165 8945ft 145kts
22-Feb-20 12:18 35.029247 -114.552029 166 8945ft 145kts
22-Feb-20 12:19 34.989604 -114.541832 168 8945ft 145kts
22-Feb-20 12:20 34.949901 -114.530294 165 8792ft 153kts
22-Feb-20 12:21 34.908181 -114.517530 165 8329ft 155kts
22-Feb-20 12:22 34.866194 -114.504687 165 7832ft 155kts
22-Feb-20 12:23 34.827025 -114.492683 165 8019ft 135kts
22-Feb-20 12:24 34.788572 -114.480865 165 7977ft 146kts
22-Feb-20 12:25 34.753519 -114.486711 256 7945ft 145kts
22-Feb-20 12:26 34.782714 -114.511573 345 7955ft 145kts
22-Feb-20 12:27 34.821870 -114.523972 345 7955ft 145kts
22-Feb-20 12:28 34.857979 -114.521418 67 7945ft 145kts
22-Feb-20 12:29 34.831079 -114.494933 165 7895ft 148kts
22-Feb-20 12:30 34.790376 -114.482427 165 7518ft 153kts
22-Feb-20 12:31 34.749432 -114.469465 174 7169ft 152kts
22-Feb-20 12:32 34.707858 -114.460979 152 6717ft 139kts
22-Feb-20 12:33 34.678646 -114.442816 149 5924ft 114kts
22-Feb-20 12:34 34.653239 -114.424284 147 5013ft 87kts
22-Feb-20 12:35 34.632615 -114.404042 140 3564ft 104kts
22-Feb-20 12:36 34.609559 -114.385057 148 2355ft 94kts
22-Feb-20 12:37 34.587446 -114.369728 146 1209ft 81kts
22-Feb-20 12:38 34.577250 -114.363453 239 783ft 15kts
22-Feb-20 12:39 34.578314 -114.365245 148 783ft 0kts
22-Feb-20 12:41 34.578314 -114.365245 148 783ft 0kts
22-Feb-20 12:42 34.578314 -114.365245 148 783ft 0kts

Navigation Log

Ident Type
Flight plan parsing failed, navigation log unavailable